createdAt,value
2023-04-12T09:52:18.581Z,11.98
2023-04-12T09:54:48.714Z,12.31
2023-04-12T09:57:17.755Z,12.39
2023-04-12T09:59:52.435Z,12.45
2023-04-12T10:02:27.062Z,12.74
2023-04-12T10:04:55.708Z,12.84
2023-04-12T10:07:27.500Z,13.00
2023-04-12T10:12:54.354Z,13.01
2023-04-12T10:15:28.101Z,13.08
2023-04-12T10:18:07.144Z,13.28
2023-04-12T10:20:35.269Z,13.44
2023-04-12T10:23:06.225Z,13.68
2023-04-12T10:25:34.719Z,13.68
2023-04-12T10:28:19.283Z,13.93
2023-04-12T10:30:51.248Z,13.82
2023-04-12T10:33:33.490Z,13.99
2023-04-12T10:36:11.483Z,13.96
2023-04-12T10:39:07.731Z,14.13
2023-04-12T10:41:36.396Z,13.89
2023-04-12T10:44:25.712Z,14.20
2023-04-12T10:46:53.637Z,14.27
2023-04-12T10:49:22.305Z,13.97
2023-04-12T10:52:05.334Z,13.99
2023-04-12T10:54:36.880Z,13.95
2023-04-12T10:57:08.470Z,13.74
2023-04-12T10:59:59.673Z,13.77
2023-04-12T11:02:28.147Z,13.66
2023-04-12T11:05:10.362Z,13.84
2023-04-12T11:07:57.373Z,13.92
2023-04-12T11:11:06.194Z,13.99
2023-04-12T11:13:39.155Z,13.97
2023-04-12T11:16:13.321Z,13.80
2023-04-12T11:18:42.865Z,13.98
2023-04-12T11:21:11.019Z,13.99
2023-04-12T11:23:41.447Z,14.09
2023-04-12T11:26:10.934Z,13.99
2023-04-12T11:28:39.443Z,13.77
2023-04-12T11:31:08.872Z,13.67
2023-04-12T11:33:41.631Z,13.52
2023-04-12T11:36:12.939Z,13.32
2023-04-12T11:38:41.535Z,13.42
2023-04-12T11:41:10.383Z,13.42
2023-04-12T11:43:38.985Z,13.31
2023-04-12T11:46:07.355Z,13.35
2023-04-12T11:48:38.588Z,13.32
2023-04-12T11:51:22.593Z,13.40
2023-04-12T11:53:57.570Z,13.37
2023-04-12T11:56:27.527Z,13.68
2023-04-12T11:58:55.712Z,13.42
2023-04-12T12:01:24.246Z,13.51
2023-04-12T12:03:52.914Z,13.72
2023-04-12T12:06:21.774Z,13.69
2023-04-12T12:08:51.738Z,13.64
2023-04-12T12:11:21.983Z,13.46
2023-04-12T12:13:51.289Z,13.60
2023-04-12T12:16:21.621Z,13.56
2023-04-12T12:18:52.549Z,13.59
2023-04-12T12:21:21.934Z,13.63
2023-04-12T12:23:50.068Z,13.45
2023-04-12T12:26:22.106Z,13.67
2023-04-12T12:28:51.879Z,13.71
2023-04-12T12:31:21.806Z,13.70
2023-04-12T12:33:55.246Z,13.68
2023-04-12T12:36:33.769Z,13.86
2023-04-12T12:39:10.998Z,13.77
2023-04-12T12:41:39.865Z,13.81
2023-04-12T12:44:08.833Z,13.88
2023-04-12T12:49:08.014Z,13.84
2023-04-12T12:51:37.595Z,13.70
2023-04-12T12:54:05.660Z,13.69
2023-04-12T12:56:37.175Z,13.73
2023-04-12T12:59:05.425Z,13.72
2023-04-12T13:01:33.750Z,13.75
2023-04-12T13:04:01.924Z,13.69
2023-04-12T13:06:32.509Z,13.73
2023-04-12T13:09:01.372Z,13.87
2023-04-12T13:11:33.098Z,13.91
2023-04-12T13:14:02.691Z,13.81
2023-04-12T13:16:30.994Z,13.85
2023-04-12T13:18:59.525Z,13.91
2023-04-12T13:21:30.179Z,14.03
2023-04-12T13:24:03.345Z,14.09
2023-04-12T13:26:32.643Z,14.22
2023-04-12T13:29:01.576Z,13.95
2023-04-12T13:31:36.462Z,14.04
2023-04-12T13:34:04.560Z,13.79
2023-04-12T13:36:33.279Z,13.92
2023-04-12T13:39:01.167Z,13.70
2023-04-12T13:41:31.924Z,13.74
2023-04-12T13:43:59.971Z,13.98
2023-04-12T13:46:28.987Z,13.91
2023-04-12T13:48:58.261Z,14.10
2023-04-12T13:51:26.917Z,13.94
2023-04-12T13:53:58.140Z,14.05
2023-04-12T13:56:28.818Z,14.25
2023-04-12T13:58:59.685Z,14.08
2023-04-12T14:01:27.932Z,14.50
2023-04-12T14:03:57.270Z,14.55
2023-04-12T14:06:25.077Z,14.53
2023-04-12T14:08:53.421Z,14.47
2023-04-12T14:11:23.666Z,14.86
2023-04-12T14:13:51.593Z,14.80
2023-04-12T14:16:24.447Z,14.59
2023-04-12T14:18:53.312Z,14.38
2023-04-12T14:21:22.900Z,14.47
2023-04-12T14:23:53.282Z,14.46
2023-04-12T14:26:22.145Z,14.50
2023-04-12T14:28:50.366Z,14.44
2023-04-12T14:31:18.335Z,14.47
2023-04-12T14:33:48.273Z,14.25
2023-04-12T14:36:17.074Z,14.06
2023-04-12T14:38:46.380Z,14.03
2023-04-12T14:41:17.950Z,14.20
2023-04-12T14:43:46.786Z,14.15
2023-04-12T14:46:15.012Z,14.27
2023-04-12T14:48:44.705Z,14.25
2023-04-12T14:51:12.808Z,14.20
2023-04-12T14:53:43.368Z,14.22
2023-04-12T14:56:29.830Z,14.09
2023-04-12T14:59:06.468Z,14.17
2023-04-12T15:01:35.197Z,14.42
2023-04-12T15:04:04.612Z,14.37
2023-04-12T15:06:42.596Z,14.20
2023-04-12T15:09:10.770Z,14.28
2023-04-12T15:11:41.225Z,14.24
2023-04-12T15:14:10.230Z,14.32
2023-04-12T15:16:43.124Z,14.35
2023-04-12T15:19:18.479Z,14.42
2023-04-12T15:21:55.472Z,14.34
2023-04-12T15:24:28.436Z,14.29
2023-04-12T15:26:56.864Z,14.28
2023-04-12T15:29:26.964Z,14.28
2023-04-12T15:31:56.910Z,14.12
2023-04-12T15:34:25.519Z,14.31
2023-04-12T15:36:53.642Z,14.32
2023-04-12T15:39:29.032Z,13.93
2023-04-12T15:41:56.954Z,14.03
2023-04-12T15:44:27.312Z,14.11
2023-04-12T15:47:10.500Z,14.20
2023-04-12T15:49:43.066Z,14.21
2023-04-12T15:52:12.191Z,14.12
2023-04-12T15:54:43.873Z,14.26
2023-04-12T15:57:12.381Z,14.12
2023-04-12T15:59:42.350Z,14.16
2023-04-12T16:02:15.390Z,14.29
2023-04-12T16:04:43.868Z,14.07
2023-04-12T16:07:11.848Z,14.22
2023-04-12T16:09:40.829Z,14.27
2023-04-12T16:12:09.189Z,14.23
2023-04-12T16:14:42.081Z,14.06
2023-04-12T16:17:14.966Z,14.08
2023-04-12T16:19:44.864Z,14.07
2023-04-12T16:22:15.856Z,14.07
2023-04-12T16:24:45.749Z,14.07
2023-04-12T16:27:14.689Z,14.02
2023-04-12T16:29:42.970Z,14.11
2023-04-12T16:32:15.142Z,14.06
2023-04-12T16:34:48.988Z,14.04
2023-04-12T16:37:21.413Z,14.05
2023-04-12T16:39:53.450Z,14.07
2023-04-12T16:42:24.818Z,14.13
2023-04-12T16:44:53.161Z,14.11
2023-04-12T16:47:22.100Z,13.89
2023-04-12T16:49:50.619Z,13.85
2023-04-12T16:52:19.262Z,13.94
2023-04-12T16:54:48.379Z,14.04
2023-04-12T16:57:18.125Z,14.07
2023-04-12T16:59:48.535Z,14.11
2023-04-12T17:02:20.263Z,14.00
2023-04-12T17:04:50.696Z,14.08
2023-04-12T17:07:19.114Z,14.08
2023-04-12T17:09:48.691Z,14.11
2023-04-12T17:12:16.778Z,14.15
2023-04-12T17:14:45.719Z,14.08
2023-04-12T17:17:15.647Z,14.06
2023-04-12T17:19:44.961Z,13.96
2023-04-12T17:22:12.786Z,13.99
2023-04-12T17:24:44.733Z,13.95
2023-04-12T17:27:13.217Z,13.96
2023-04-12T17:29:41.226Z,14.05
2023-04-12T17:32:09.377Z,14.03
2023-04-12T17:34:42.528Z,14.08
2023-04-12T17:37:11.027Z,14.00
2023-04-12T17:39:39.060Z,13.97
2023-04-12T17:42:07.326Z,13.94
2023-04-12T17:44:35.742Z,13.96
2023-04-12T17:47:07.658Z,14.06
2023-04-12T17:49:36.356Z,13.99
2023-04-12T17:52:04.600Z,13.93
2023-04-12T17:54:34.603Z,13.90
2023-04-12T17:57:03.873Z,13.82
2023-04-12T17:59:32.060Z,13.83
2023-04-12T18:02:04.356Z,13.95
2023-04-12T18:04:32.428Z,13.90
2023-04-12T18:07:00.347Z,14.00
2023-04-12T18:09:28.688Z,14.01
2023-04-12T18:11:57.792Z,13.99
2023-04-12T18:14:25.892Z,14.03
2023-04-12T18:16:55.359Z,14.13
2023-04-12T18:19:23.332Z,14.09
2023-04-12T18:21:51.897Z,13.98
2023-04-12T18:24:20.061Z,13.90
2023-04-12T18:26:47.976Z,13.88
2023-04-12T18:29:17.801Z,13.97
2023-04-12T18:31:46.076Z,13.97
2023-04-12T18:34:14.439Z,14.03
2023-04-12T18:36:43.090Z,14.00
2023-04-12T18:39:11.406Z,14.09
2023-04-12T18:41:41.272Z,14.00
2023-04-12T18:44:09.530Z,14.04
2023-04-12T18:46:37.748Z,14.10
2023-04-12T18:49:08.406Z,14.08
2023-04-12T18:51:36.434Z,14.03
2023-04-12T18:54:05.399Z,14.09
2023-04-12T18:56:34.390Z,14.22
2023-04-12T18:59:03.872Z,14.24
2023-04-12T19:01:35.771Z,14.25
2023-04-12T19:04:04.670Z,14.18
2023-04-12T19:06:33.215Z,14.12
2023-04-12T19:09:01.765Z,14.06
2023-04-12T19:11:30.364Z,14.04
2023-04-12T19:14:00.074Z,14.06
2023-04-12T19:16:28.635Z,14.04
2023-04-12T19:19:04.680Z,14.10
2023-04-12T19:21:33.927Z,14.13
2023-04-12T19:24:01.985Z,14.21
2023-04-12T19:26:31.975Z,14.20
2023-04-12T19:28:59.828Z,14.10
2023-04-12T19:31:35.288Z,14.12
2023-04-12T19:34:05.719Z,14.18
2023-04-12T19:36:33.452Z,14.20
2023-04-12T19:39:02.028Z,14.22
2023-04-12T19:41:30.016Z,14.19
2023-04-12T19:43:58.341Z,14.22
2023-04-12T19:46:28.981Z,14.17
2023-04-12T19:48:58.573Z,14.19
2023-04-12T19:51:31.404Z,14.29
2023-04-12T19:56:55.247Z,14.33
2023-04-12T19:59:44.155Z,14.12
2023-04-12T20:02:13.987Z,14.10
2023-04-12T20:04:43.559Z,14.10
2023-04-12T20:07:12.980Z,14.24
2023-04-12T20:09:45.131Z,14.27
2023-04-12T20:12:16.750Z,14.28
2023-04-12T20:14:49.534Z,14.20
2023-04-12T20:17:19.392Z,14.21
2023-04-12T20:19:48.630Z,14.17
2023-04-12T20:22:22.534Z,14.17
2023-04-12T20:24:57.986Z,14.14
2023-04-12T20:27:30.355Z,14.01
2023-04-12T20:30:06.752Z,14.05
2023-04-12T20:33:02.040Z,13.92
2023-04-12T20:35:33.879Z,14.02
2023-04-12T20:38:03.582Z,13.92
2023-04-12T20:43:23.742Z,14.12
2023-04-12T20:52:17.671Z,13.88
2023-04-12T20:54:48.606Z,13.95
2023-04-12T20:57:19.975Z,14.00
2023-04-12T20:59:51.826Z,13.85
2023-04-12T21:02:21.470Z,13.86
2023-04-12T21:04:51.270Z,13.93
2023-04-12T21:07:30.726Z,13.86
2023-04-12T21:10:05.445Z,13.95
2023-04-12T21:12:52.201Z,13.84
2023-04-12T21:15:28.985Z,13.95
2023-04-12T21:17:58.849Z,13.93
2023-04-12T21:20:31.118Z,14.02
2023-04-12T21:22:59.968Z,14.07
2023-04-12T21:25:29.147Z,13.93
2023-04-12T21:27:57.575Z,13.97
2023-04-12T21:30:26.565Z,13.96
2023-04-12T21:32:57.142Z,13.91
2023-04-12T21:35:26.621Z,13.89
2023-04-12T21:37:56.587Z,13.88
2023-04-12T21:40:27.494Z,13.85
2023-04-12T21:42:57.833Z,13.84
2023-04-12T21:45:29.413Z,13.88
2023-04-12T21:48:01.662Z,13.95
2023-04-12T21:50:33.167Z,14.02
2023-04-12T21:53:06.197Z,13.98
2023-04-12T21:55:34.487Z,13.84
2023-04-12T21:58:04.318Z,13.96
2023-04-12T22:00:37.262Z,13.96
2023-04-12T22:03:07.280Z,14.08
2023-04-12T22:05:36.728Z,13.84
2023-04-12T22:08:11.593Z,13.91
2023-04-12T22:10:40.650Z,13.82
2023-04-12T22:13:11.400Z,13.68
2023-04-12T22:15:45.920Z,13.94
2023-04-12T22:18:18.309Z,14.05
2023-04-12T22:20:48.282Z,14.17
2023-04-12T22:23:25.732Z,14.09
2023-04-12T22:25:58.719Z,13.85
2023-04-12T22:28:34.293Z,13.87
2023-04-12T22:31:10.563Z,14.02
2023-04-12T22:33:47.816Z,14.08
2023-04-12T22:36:19.231Z,14.06
2023-04-12T22:38:49.547Z,14.08
2023-04-12T22:41:28.762Z,14.02
2023-04-12T22:44:03.553Z,13.98
2023-04-12T22:46:33.437Z,13.95
2023-04-12T22:49:02.350Z,13.88
2023-04-12T22:51:33.971Z,13.93
2023-04-12T22:54:03.221Z,13.94
2023-04-12T22:56:34.700Z,13.90
2023-04-12T22:59:04.489Z,13.89
2023-04-12T23:01:33.391Z,13.94
2023-04-12T23:04:06.726Z,13.90
2023-04-12T23:06:40.462Z,13.87
2023-04-12T23:09:10.901Z,13.73
2023-04-12T23:11:40.375Z,13.69
2023-04-12T23:14:18.088Z,13.79
2023-04-12T23:16:46.524Z,13.68
2023-04-12T23:19:15.058Z,13.78
2023-04-12T23:21:45.950Z,13.81
2023-04-12T23:24:18.847Z,13.82
2023-04-12T23:26:47.717Z,13.82
2023-04-12T23:29:20.058Z,13.90
2023-04-12T23:31:48.912Z,13.97
2023-04-12T23:34:19.413Z,13.95
2023-04-12T23:36:50.501Z,13.95
2023-04-12T23:39:19.659Z,14.00
2023-04-12T23:41:49.913Z,13.84
2023-04-12T23:44:29.612Z,13.90
2023-04-12T23:47:12.754Z,13.93
2023-04-12T23:49:41.530Z,13.90
2023-04-12T23:52:37.366Z,13.80
2023-04-12T23:55:07.283Z,13.74
2023-04-12T23:57:38.105Z,13.80
